sensor_id;sensor_type;location;lat;lon;timestamp;pressure;altitude;pressure_sealevel;temperature;humidity
55517;BME280;41724;51.176;-0.708;2022-09-03T00:00:18;100406.73;;;21.52;57.02
55517;BME280;41724;51.176;-0.708;2022-09-03T00:02:52;100403.83;;;21.50;57.50
55517;BME280;41724;51.176;-0.708;2022-09-03T00:05:28;100403.46;;;21.33;57.30
55517;BME280;41724;51.176;-0.708;2022-09-03T00:08:02;100402.33;;;21.25;57.92
55517;BME280;41724;51.176;-0.708;2022-09-03T00:10:40;100404.63;;;21.15;57.31
55517;BME280;41724;51.176;-0.708;2022-09-03T00:13:15;100405.45;;;21.19;56.98
55517;BME280;41724;51.176;-0.708;2022-09-03T00:15:43;100405.39;;;21.24;56.48
55517;BME280;41724;51.176;-0.708;2022-09-03T00:18:15;100406.88;;;21.42;57.26
55517;BME280;41724;51.176;-0.708;2022-09-03T00:20:48;100410.40;;;21.33;57.76
55517;BME280;41724;51.176;-0.708;2022-09-03T00:23:21;100407.13;;;21.03;56.75
55517;BME280;41724;51.176;-0.708;2022-09-03T00:25:55;100404.13;;;20.90;57.23
55517;BME280;41724;51.176;-0.708;2022-09-03T00:28:27;100406.88;;;21.50;57.16
55517;BME280;41724;51.176;-0.708;2022-09-03T00:31:06;100405.02;;;21.39;56.55
55517;BME280;41724;51.176;-0.708;2022-09-03T00:33:38;100405.46;;;20.91;56.79
55517;BME280;41724;51.176;-0.708;2022-09-03T00:36:14;100401.26;;;21.14;56.67
55517;BME280;41724;51.176;-0.708;2022-09-03T00:38:42;100399.16;;;21.10;57.16
55517;BME280;41724;51.176;-0.708;2022-09-03T00:41:24;100397.91;;;20.84;57.12
55517;BME280;41724;51.176;-0.708;2022-09-03T00:44:05;100399.05;;;20.78;56.06
55517;BME280;41724;51.176;-0.708;2022-09-03T00:46:41;100396.76;;;20.64;57.07
55517;BME280;41724;51.176;-0.708;2022-09-03T00:49:24;100392.53;;;20.88;57.34
55517;BME280;41724;51.176;-0.708;2022-09-03T00:52:00;100390.17;;;20.84;56.55
55517;BME280;41724;51.176;-0.708;2022-09-03T00:54:40;100390.81;;;20.77;56.86
55517;BME280;41724;51.176;-0.708;2022-09-03T00:57:22;100391.52;;;20.74;57.53
55517;BME280;41724;51.176;-0.708;2022-09-03T01:00:00;100387.07;;;20.76;56.62
55517;BME280;41724;51.176;-0.708;2022-09-03T01:02:39;100387.49;;;20.82;56.71
55517;BME280;41724;51.176;-0.708;2022-09-03T01:05:22;100391.75;;;20.71;56.84
55517;BME280;41724;51.176;-0.708;2022-09-03T01:08:03;100391.14;;;20.68;56.34
55517;BME280;41724;51.176;-0.708;2022-09-03T01:10:39;100389.40;;;20.59;57.50
55517;BME280;41724;51.176;-0.708;2022-09-03T01:13:16;100386.93;;;20.47;56.91
55517;BME280;41724;51.176;-0.708;2022-09-03T01:15:56;100386.13;;;20.57;56.88
55517;BME280;41724;51.176;-0.708;2022-09-03T01:18:33;100392.41;;;20.54;56.90
55517;BME280;41724;51.176;-0.708;2022-09-03T01:21:19;100388.67;;;20.38;56.74
55517;BME280;41724;51.176;-0.708;2022-09-03T01:24:12;100392.22;;;20.39;57.30
55517;BME280;41724;51.176;-0.708;2022-09-03T01:27:00;100384.89;;;20.26;57.17
55517;BME280;41724;51.176;-0.708;2022-09-03T01:29:35;100385.65;;;20.40;57.12
55517;BME280;41724;51.176;-0.708;2022-09-03T01:32:09;100386.50;;;20.52;57.14
55517;BME280;41724;51.176;-0.708;2022-09-03T01:34:48;100388.77;;;20.29;57.60
55517;BME280;41724;51.176;-0.708;2022-09-03T01:37:29;100387.98;;;20.15;57.21
55517;BME280;41724;51.176;-0.708;2022-09-03T01:40:08;100385.82;;;20.20;56.78
55517;BME280;41724;51.176;-0.708;2022-09-03T01:42:52;100391.98;;;20.13;57.08
55517;BME280;41724;51.176;-0.708;2022-09-03T01:45:36;100394.47;;;20.37;56.79
55517;BME280;41724;51.176;-0.708;2022-09-03T01:48:16;100391.16;;;20.09;56.79
55517;BME280;41724;51.176;-0.708;2022-09-03T01:50:52;100389.84;;;20.16;57.16
55517;BME280;41724;51.176;-0.708;2022-09-03T01:53:37;100394.12;;;20.19;56.89
55517;BME280;41724;51.176;-0.708;2022-09-03T01:56:21;100390.27;;;20.20;57.04
55517;BME280;41724;51.176;-0.708;2022-09-03T01:58:57;100394.49;;;20.37;56.56
55517;BME280;41724;51.176;-0.708;2022-09-03T02:01:30;100393.74;;;20.34;56.53
55517;BME280;41724;51.176;-0.708;2022-09-03T02:04:01;100394.45;;;19.96;56.52
55517;BME280;41724;51.176;-0.708;2022-09-03T02:06:29;100393.15;;;20.05;56.49
55517;BME280;41724;51.176;-0.708;2022-09-03T02:08:56;100393.35;;;19.96;56.74
55517;BME280;41724;51.176;-0.708;2022-09-03T02:11:24;100390.27;;;19.99;56.29
55517;BME280;41724;51.176;-0.708;2022-09-03T02:13:53;100386.00;;;20.18;56.32
55517;BME280;41724;51.176;-0.708;2022-09-03T02:16:24;100383.09;;;19.96;56.37
55517;BME280;41724;51.176;-0.708;2022-09-03T02:18:55;100381.74;;;20.13;56.33
55517;BME280;41724;51.176;-0.708;2022-09-03T02:21:26;100381.44;;;19.68;56.30
55517;BME280;41724;51.176;-0.708;2022-09-03T02:23:53;100382.92;;;19.70;55.77
55517;BME280;41724;51.176;-0.708;2022-09-03T02:26:22;100384.02;;;19.77;55.51
55517;BME280;41724;51.176;-0.708;2022-09-03T02:28:51;100388.72;;;19.69;56.10
55517;BME280;41724;51.176;-0.708;2022-09-03T02:31:19;100392.94;;;19.44;56.10
55517;BME280;41724;51.176;-0.708;2022-09-03T02:33:47;100395.10;;;19.25;57.53
55517;BME280;41724;51.176;-0.708;2022-09-03T02:36:18;100395.69;;;19.09;58.23
55517;BME280;41724;51.176;-0.708;2022-09-03T02:38:46;100385.59;;;19.16;57.39
55517;BME280;41724;51.176;-0.708;2022-09-03T02:41:13;100381.16;;;19.54;57.88
55517;BME280;41724;51.176;-0.708;2022-09-03T02:43:46;100378.09;;;19.54;56.85
55517;BME280;41724;51.176;-0.708;2022-09-03T02:46:17;100376.38;;;19.65;56.48
55517;BME280;41724;51.176;-0.708;2022-09-03T02:48:46;100376.11;;;19.74;56.20
55517;BME280;41724;51.176;-0.708;2022-09-03T02:51:14;100376.01;;;19.74;56.13
55517;BME280;41724;51.176;-0.708;2022-09-03T02:53:41;100371.22;;;19.69;56.11
55517;BME280;41724;51.176;-0.708;2022-09-03T02:56:08;100366.50;;;19.63;55.92
55517;BME280;41724;51.176;-0.708;2022-09-03T02:58:35;100365.56;;;19.41;55.88
55517;BME280;41724;51.176;-0.708;2022-09-03T03:01:03;100370.35;;;19.48;55.69
55517;BME280;41724;51.176;-0.708;2022-09-03T03:03:31;100372.60;;;19.73;55.28
55517;BME280;41724;51.176;-0.708;2022-09-03T03:06:01;100371.40;;;19.62;55.84
55517;BME280;41724;51.176;-0.708;2022-09-03T03:08:29;100369.94;;;19.59;55.41
55517;BME280;41724;51.176;-0.708;2022-09-03T03:10:57;100367.21;;;19.59;55.05
55517;BME280;41724;51.176;-0.708;2022-09-03T03:13:24;100363.38;;;19.22;55.81
55517;BME280;41724;51.176;-0.708;2022-09-03T03:15:55;100364.24;;;19.14;55.70
55517;BME280;41724;51.176;-0.708;2022-09-03T03:18:23;100364.47;;;19.18;56.14
55517;BME280;41724;51.176;-0.708;2022-09-03T03:20:50;100365.57;;;19.18;55.87
55517;BME280;41724;51.176;-0.708;2022-09-03T03:23:17;100360.07;;;19.19;55.56
55517;BME280;41724;51.176;-0.708;2022-09-03T03:25:45;100353.20;;;18.98;56.13
55517;BME280;41724;51.176;-0.708;2022-09-03T03:28:12;100353.68;;;19.21;56.11
55517;BME280;41724;51.176;-0.708;2022-09-03T03:30:39;100359.88;;;18.99;56.27
55517;BME280;41724;51.176;-0.708;2022-09-03T03:33:06;100355.37;;;19.04;56.09
55517;BME280;41724;51.176;-0.708;2022-09-03T03:35:34;100355.27;;;18.99;56.31
55517;BME280;41724;51.176;-0.708;2022-09-03T03:38:01;100358.93;;;19.11;56.40
55517;BME280;41724;51.176;-0.708;2022-09-03T03:40:29;100358.67;;;19.03;56.70
55517;BME280;41724;51.176;-0.708;2022-09-03T03:42:57;100356.81;;;19.16;55.95
55517;BME280;41724;51.176;-0.708;2022-09-03T03:45:24;100357.11;;;19.32;55.42
55517;BME280;41724;51.176;-0.708;2022-09-03T03:47:56;100358.70;;;19.18;55.77
55517;BME280;41724;51.176;-0.708;2022-09-03T03:50:23;100360.15;;;18.88;56.38
55517;BME280;41724;51.176;-0.708;2022-09-03T03:52:50;100363.35;;;19.06;56.26
55517;BME280;41724;51.176;-0.708;2022-09-03T03:55:17;100365.50;;;19.06;56.23
55517;BME280;41724;51.176;-0.708;2022-09-03T03:57:45;100372.86;;;18.51;56.54
55517;BME280;41724;51.176;-0.708;2022-09-03T04:00:13;100367.54;;;18.87;56.54
55517;BME280;41724;51.176;-0.708;2022-09-03T04:02:40;100369.79;;;18.97;56.14
55517;BME280;41724;51.176;-0.708;2022-09-03T04:05:08;100364.11;;;18.79;56.44
55517;BME280;41724;51.176;-0.708;2022-09-03T04:07:35;100356.39;;;19.00;56.05
55517;BME280;41724;51.176;-0.708;2022-09-03T04:10:03;100355.30;;;19.02;56.02
55517;BME280;41724;51.176;-0.708;2022-09-03T04:12:31;100353.95;;;18.92;55.51
55517;BME280;41724;51.176;-0.708;2022-09-03T04:14:58;100358.68;;;19.53;55.41
55517;BME280;41724;51.176;-0.708;2022-09-03T04:17:27;100364.63;;;19.14;55.63
55517;BME280;41724;51.176;-0.708;2022-09-03T04:19:54;100364.97;;;18.96;55.55
55517;BME280;41724;51.176;-0.708;2022-09-03T04:22:21;100363.61;;;19.14;55.82
55517;BME280;41724;51.176;-0.708;2022-09-03T04:24:49;100360.84;;;19.21;56.00
55517;BME280;41724;51.176;-0.708;2022-09-03T04:27:16;100358.85;;;18.91;56.48
55517;BME280;41724;51.176;-0.708;2022-09-03T04:29:44;100363.38;;;18.76;56.16
55517;BME280;41724;51.176;-0.708;2022-09-03T04:32:11;100362.21;;;19.00;56.41
55517;BME280;41724;51.176;-0.708;2022-09-03T04:34:38;100359.08;;;19.05;56.37
55517;BME280;41724;51.176;-0.708;2022-09-03T04:37:05;100354.10;;;19.09;55.36
55517;BME280;41724;51.176;-0.708;2022-09-03T04:39:32;100350.89;;;18.88;55.59
55517;BME280;41724;51.176;-0.708;2022-09-03T04:42:02;100346.09;;;18.86;55.03
55517;BME280;41724;51.176;-0.708;2022-09-03T04:44:28;100341.22;;;18.78;54.85
55517;BME280;41724;51.176;-0.708;2022-09-03T04:46:56;100338.29;;;19.05;55.20
55517;BME280;41724;51.176;-0.708;2022-09-03T04:49:23;100343.30;;;18.81;55.00
55517;BME280;41724;51.176;-0.708;2022-09-03T04:51:50;100342.25;;;18.95;55.34
55517;BME280;41724;51.176;-0.708;2022-09-03T04:54:17;100343.32;;;18.78;56.67
55517;BME280;41724;51.176;-0.708;2022-09-03T04:56:44;100338.09;;;18.89;55.92
55517;BME280;41724;51.176;-0.708;2022-09-03T04:59:12;100332.46;;;18.83;55.20
55517;BME280;41724;51.176;-0.708;2022-09-03T05:01:39;100335.48;;;18.80;55.17
55517;BME280;41724;51.176;-0.708;2022-09-03T05:04:07;100338.91;;;18.87;55.01
55517;BME280;41724;51.176;-0.708;2022-09-03T05:06:35;100334.07;;;18.71;55.04
55517;BME280;41724;51.176;-0.708;2022-09-03T05:09:03;100330.70;;;19.14;55.00
55517;BME280;41724;51.176;-0.708;2022-09-03T05:11:31;100328.06;;;18.72;55.36
55517;BME280;41724;51.176;-0.708;2022-09-03T05:13:58;100329.10;;;18.74;54.78
55517;BME280;41724;51.176;-0.708;2022-09-03T05:16:26;100330.53;;;18.86;54.84
55517;BME280;41724;51.176;-0.708;2022-09-03T05:18:54;100330.96;;;18.63;55.06
55517;BME280;41724;51.176;-0.708;2022-09-03T05:21:23;100332.80;;;18.88;54.55
55517;BME280;41724;51.176;-0.708;2022-09-03T05:23:50;100334.06;;;18.84;54.44
55517;BME280;41724;51.176;-0.708;2022-09-03T05:26:19;100341.40;;;18.70;55.57
55517;BME280;41724;51.176;-0.708;2022-09-03T05:28:47;100342.12;;;18.60;55.94
55517;BME280;41724;51.176;-0.708;2022-09-03T05:31:19;100345.44;;;18.81;55.99
55517;BME280;41724;51.176;-0.708;2022-09-03T05:33:49;100343.07;;;18.58;55.98
55517;BME280;41724;51.176;-0.708;2022-09-03T05:36:18;100345.64;;;18.59;55.74
55517;BME280;41724;51.176;-0.708;2022-09-03T05:38:46;100347.29;;;18.52;55.28
55517;BME280;41724;51.176;-0.708;2022-09-03T05:41:14;100340.48;;;18.87;54.93
55517;BME280;41724;51.176;-0.708;2022-09-03T05:43:42;100339.36;;;19.17;54.71
55517;BME280;41724;51.176;-0.708;2022-09-03T05:46:10;100345.84;;;18.81;55.50
55517;BME280;41724;51.176;-0.708;2022-09-03T05:48:39;100346.83;;;19.06;55.53
55517;BME280;41724;51.176;-0.708;2022-09-03T05:51:08;100350.23;;;18.90;55.60
55517;BME280;41724;51.176;-0.708;2022-09-03T05:53:38;100354.72;;;19.19;55.78
55517;BME280;41724;51.176;-0.708;2022-09-03T05:56:06;100353.45;;;19.03;55.62
55517;BME280;41724;51.176;-0.708;2022-09-03T05:58:35;100354.05;;;18.88;56.33
55517;BME280;41724;51.176;-0.708;2022-09-03T06:01:10;100357.11;;;18.92;56.01
55517;BME280;41724;51.176;-0.708;2022-09-03T06:03:38;100362.34;;;18.79;56.60
55517;BME280;41724;51.176;-0.708;2022-09-03T06:06:05;100363.27;;;18.96;55.56
55517;BME280;41724;51.176;-0.708;2022-09-03T06:08:32;100357.25;;;19.20;55.22
55517;BME280;41724;51.176;-0.708;2022-09-03T06:10:59;100356.21;;;19.23;55.03
55517;BME280;41724;51.176;-0.708;2022-09-03T06:13:27;100353.07;;;19.01;55.32
55517;BME280;41724;51.176;-0.708;2022-09-03T06:15:56;100350.48;;;19.00;55.93
55517;BME280;41724;51.176;-0.708;2022-09-03T06:18:23;100349.53;;;19.19;56.24
55517;BME280;41724;51.176;-0.708;2022-09-03T06:20:54;100353.90;;;19.31;55.94
55517;BME280;41724;51.176;-0.708;2022-09-03T06:23:22;100357.58;;;19.13;55.34
55517;BME280;41724;51.176;-0.708;2022-09-03T06:25:59;100361.51;;;19.34;55.39
55517;BME280;41724;51.176;-0.708;2022-09-03T06:28:27;100367.40;;;19.39;56.21
55517;BME280;41724;51.176;-0.708;2022-09-03T06:30:57;100369.01;;;19.48;56.02
55517;BME280;41724;51.176;-0.708;2022-09-03T06:33:24;100369.37;;;19.37;56.60
55517;BME280;41724;51.176;-0.708;2022-09-03T06:35:53;100369.66;;;19.76;56.41
55517;BME280;41724;51.176;-0.708;2022-09-03T06:38:21;100374.79;;;19.68;55.97
55517;BME280;41724;51.176;-0.708;2022-09-03T06:40:53;100374.68;;;19.76;56.11
55517;BME280;41724;51.176;-0.708;2022-09-03T06:43:21;100372.89;;;19.85;56.21
55517;BME280;41724;51.176;-0.708;2022-09-03T06:45:54;100367.97;;;20.11;55.81
55517;BME280;41724;51.176;-0.708;2022-09-03T06:48:21;100364.06;;;20.07;56.33
55517;BME280;41724;51.176;-0.708;2022-09-03T06:50:57;100367.95;;;20.29;55.94
55517;BME280;41724;51.176;-0.708;2022-09-03T06:53:26;100369.55;;;20.07;56.60
55517;BME280;41724;51.176;-0.708;2022-09-03T06:55:55;100369.11;;;20.48;56.06
55517;BME280;41724;51.176;-0.708;2022-09-03T06:58:23;100378.12;;;20.51;56.94
55517;BME280;41724;51.176;-0.708;2022-09-03T07:00:50;100381.34;;;20.37;56.85
55517;BME280;41724;51.176;-0.708;2022-09-03T07:03:17;100389.86;;;20.78;56.18
55517;BME280;41724;51.176;-0.708;2022-09-03T07:05:44;100393.26;;;20.52;56.12
55517;BME280;41724;51.176;-0.708;2022-09-03T07:08:12;100394.71;;;20.78;56.54
55517;BME280;41724;51.176;-0.708;2022-09-03T07:10:39;100397.41;;;20.79;55.58
55517;BME280;41724;51.176;-0.708;2022-09-03T07:13:06;100401.44;;;20.79;55.95
55517;BME280;41724;51.176;-0.708;2022-09-03T07:15:34;100399.55;;;20.94;55.56
55517;BME280;41724;51.176;-0.708;2022-09-03T07:18:01;100404.52;;;20.97;56.45
55517;BME280;41724;51.176;-0.708;2022-09-03T07:20:28;100408.33;;;20.75;56.76
55517;BME280;41724;51.176;-0.708;2022-09-03T07:22:56;100407.41;;;21.11;56.94
55517;BME280;41724;51.176;-0.708;2022-09-03T07:25:24;100413.13;;;21.27;57.11
55517;BME280;41724;51.176;-0.708;2022-09-03T07:27:51;100416.83;;;20.48;59.45
55517;BME280;41724;51.176;-0.708;2022-09-03T07:30:19;100412.72;;;20.61;59.41
55517;BME280;41724;51.176;-0.708;2022-09-03T07:32:46;100417.44;;;20.98;59.27
55517;BME280;41724;51.176;-0.708;2022-09-03T07:35:13;100414.80;;;21.02;58.52
55517;BME280;41724;51.176;-0.708;2022-09-03T07:37:41;100413.32;;;21.00;58.13
55517;BME280;41724;51.176;-0.708;2022-09-03T07:40:10;100410.67;;;20.95;58.59
55517;BME280;41724;51.176;-0.708;2022-09-03T07:42:37;100407.09;;;21.22;58.00
55517;BME280;41724;51.176;-0.708;2022-09-03T07:45:06;100405.65;;;21.22;57.80
55517;BME280;41724;51.176;-0.708;2022-09-03T07:47:34;100404.47;;;21.55;57.05
55517;BME280;41724;51.176;-0.708;2022-09-03T07:50:01;100406.63;;;21.52;56.97
55517;BME280;41724;51.176;-0.708;2022-09-03T07:52:28;100407.10;;;21.88;56.29
55517;BME280;41724;51.176;-0.708;2022-09-03T07:54:55;100406.06;;;21.75;56.50
55517;BME280;41724;51.176;-0.708;2022-09-03T07:57:22;100408.34;;;22.05;56.41
55517;BME280;41724;51.176;-0.708;2022-09-03T07:59:50;100407.63;;;22.15;56.98
55517;BME280;41724;51.176;-0.708;2022-09-03T08:02:17;100407.73;;;22.14;56.94
55517;BME280;41724;51.176;-0.708;2022-09-03T08:04:44;100408.38;;;21.83;58.00
55517;BME280;41724;51.176;-0.708;2022-09-03T08:07:12;100406.95;;;22.31;57.78
55517;BME280;41724;51.176;-0.708;2022-09-03T08:09:39;100409.33;;;22.08;57.38
55517;BME280;41724;51.176;-0.708;2022-09-03T08:12:06;100413.48;;;22.54;57.78
55517;BME280;41724;51.176;-0.708;2022-09-03T08:14:33;100418.65;;;22.56;57.39
55517;BME280;41724;51.176;-0.708;2022-09-03T08:17:01;100418.80;;;22.70;57.38
55517;BME280;41724;51.176;-0.708;2022-09-03T08:19:28;100417.39;;;22.89;56.85
55517;BME280;41724;51.176;-0.708;2022-09-03T08:21:55;100419.20;;;22.95;56.56
55517;BME280;41724;51.176;-0.708;2022-09-03T08:24:22;100415.14;;;23.17;56.77
55517;BME280;41724;51.176;-0.708;2022-09-03T08:26:49;100417.27;;;22.94;56.77
55517;BME280;41724;51.176;-0.708;2022-09-03T08:29:16;100414.23;;;23.05;55.63
55517;BME280;41724;51.176;-0.708;2022-09-03T08:31:43;100409.77;;;23.41;55.55
55517;BME280;41724;51.176;-0.708;2022-09-03T08:34:11;100409.48;;;23.34;55.13
55517;BME280;41724;51.176;-0.708;2022-09-03T08:36:38;100411.09;;;23.24;55.65
55517;BME280;41724;51.176;-0.708;2022-09-03T08:39:07;100418.89;;;23.35;55.98
55517;BME280;41724;51.176;-0.708;2022-09-03T08:41:47;100417.33;;;23.35;56.29
55517;BME280;41724;51.176;-0.708;2022-09-03T08:44:24;100416.34;;;23.00;57.43
55517;BME280;41724;51.176;-0.708;2022-09-03T08:46:54;100424.61;;;22.99;58.33
55517;BME280;41724;51.176;-0.708;2022-09-03T08:49:29;100429.47;;;22.88;57.70
55517;BME280;41724;51.176;-0.708;2022-09-03T08:52:01;100431.06;;;23.36;57.50
55517;BME280;41724;51.176;-0.708;2022-09-03T08:54:31;100433.60;;;23.02;58.22
55517;BME280;41724;51.176;-0.708;2022-09-03T08:57:01;100430.83;;;23.94;57.06
55517;BME280;41724;51.176;-0.708;2022-09-03T08:59:29;100432.51;;;23.96;56.46
55517;BME280;41724;51.176;-0.708;2022-09-03T09:02:03;100431.97;;;23.43;57.11
55517;BME280;41724;51.176;-0.708;2022-09-03T09:04:52;100433.36;;;23.76;56.64
55517;BME280;41724;51.176;-0.708;2022-09-03T09:07:26;100432.59;;;24.02;56.54
55517;BME280;41724;51.176;-0.708;2022-09-03T09:10:04;100432.06;;;23.59;57.36
55517;BME280;41724;51.176;-0.708;2022-09-03T09:12:44;100433.39;;;23.54;56.99
55517;BME280;41724;51.176;-0.708;2022-09-03T09:15:20;100430.62;;;23.56;55.79
55517;BME280;41724;51.176;-0.708;2022-09-03T09:18:02;100427.79;;;24.21;55.50
55517;BME280;41724;51.176;-0.708;2022-09-03T09:20:40;100427.84;;;25.00;56.33
55517;BME280;41724;51.176;-0.708;2022-09-03T09:23:14;100424.95;;;24.30;55.59
55517;BME280;41724;51.176;-0.708;2022-09-03T09:25:46;100425.24;;;24.89;53.98
55517;BME280;41724;51.176;-0.708;2022-09-03T09:28:17;100418.92;;;24.79;53.81
55517;BME280;41724;51.176;-0.708;2022-09-03T09:30:45;100422.59;;;25.39;53.52
55517;BME280;41724;51.176;-0.708;2022-09-03T09:33:13;100424.68;;;24.94;53.90
55517;BME280;41724;51.176;-0.708;2022-09-03T09:35:40;100424.64;;;25.74;52.96
55517;BME280;41724;51.176;-0.708;2022-09-03T09:38:08;100424.57;;;25.99;51.91
55517;BME280;41724;51.176;-0.708;2022-09-03T09:40:37;100425.75;;;25.98;51.57
55517;BME280;41724;51.176;-0.708;2022-09-03T09:43:07;100423.61;;;25.76;50.92
55517;BME280;41724;51.176;-0.708;2022-09-03T09:45:35;100429.90;;;26.20;51.44
55517;BME280;41724;51.176;-0.708;2022-09-03T09:48:09;100429.60;;;25.66;50.08
55517;BME280;41724;51.176;-0.708;2022-09-03T09:50:39;100435.92;;;25.55;50.76
55517;BME280;41724;51.176;-0.708;2022-09-03T09:53:08;100438.49;;;24.91;52.57
55517;BME280;41724;51.176;-0.708;2022-09-03T09:55:48;100436.27;;;25.12;52.07
55517;BME280;41724;51.176;-0.708;2022-09-03T09:58:19;100437.65;;;25.43;52.09
55517;BME280;41724;51.176;-0.708;2022-09-03T10:01:04;100434.52;;;26.25;50.56
55517;BME280;41724;51.176;-0.708;2022-09-03T10:03:35;100432.01;;;26.04;50.87
55517;BME280;41724;51.176;-0.708;2022-09-03T10:06:07;100432.34;;;26.07;50.83
55517;BME280;41724;51.176;-0.708;2022-09-03T10:08:35;100434.84;;;26.06;50.33
55517;BME280;41724;51.176;-0.708;2022-09-03T10:11:03;100432.31;;;26.17;49.60
55517;BME280;41724;51.176;-0.708;2022-09-03T10:13:38;100429.01;;;26.00;49.23
55517;BME280;41724;51.176;-0.708;2022-09-03T10:16:12;100429.15;;;26.06;49.49
55517;BME280;41724;51.176;-0.708;2022-09-03T10:18:48;100428.90;;;25.87;49.60
55517;BME280;41724;51.176;-0.708;2022-09-03T10:21:26;100427.73;;;25.96;50.10
55517;BME280;41724;51.176;-0.708;2022-09-03T10:24:00;100430.93;;;25.66;50.30
55517;BME280;41724;51.176;-0.708;2022-09-03T10:26:31;100432.18;;;25.80;50.65
55517;BME280;41724;51.176;-0.708;2022-09-03T10:29:01;100430.84;;;25.82;51.31
55517;BME280;41724;51.176;-0.708;2022-09-03T10:31:41;100434.54;;;25.64;51.90
55517;BME280;41724;51.176;-0.708;2022-09-03T10:34:20;100436.45;;;25.07;52.80
55517;BME280;41724;51.176;-0.708;2022-09-03T10:36:53;100433.44;;;25.17;52.95
55517;BME280;41724;51.176;-0.708;2022-09-03T10:39:28;100434.51;;;25.22;53.70
55517;BME280;41724;51.176;-0.708;2022-09-03T10:42:14;100431.86;;;24.35;55.62
55517;BME280;41724;51.176;-0.708;2022-09-03T10:44:57;100427.96;;;24.48;56.03
55517;BME280;41724;51.176;-0.708;2022-09-03T10:47:38;100428.97;;;24.13;57.42
55517;BME280;41724;51.176;-0.708;2022-09-03T10:50:13;100430.87;;;24.25;57.36
55517;BME280;41724;51.176;-0.708;2022-09-03T10:52:55;100433.83;;;24.18;57.60
55517;BME280;41724;51.176;-0.708;2022-09-03T10:55:33;100435.74;;;23.66;58.57
55517;BME280;41724;51.176;-0.708;2022-09-03T10:58:10;100442.86;;;23.92;58.50
55517;BME280;41724;51.176;-0.708;2022-09-03T11:00:47;100447.82;;;23.55;60.95
55517;BME280;41724;51.176;-0.708;2022-09-03T11:03:37;100439.68;;;23.01;62.71
55517;BME280;41724;51.176;-0.708;2022-09-03T11:06:11;100443.50;;;23.49;62.45
55517;BME280;41724;51.176;-0.708;2022-09-03T11:08:43;100441.39;;;23.39;61.76
55517;BME280;41724;51.176;-0.708;2022-09-03T11:11:18;100441.66;;;23.38;62.90
55517;BME280;41724;51.176;-0.708;2022-09-03T11:13:49;100439.41;;;23.64;62.76
55517;BME280;41724;51.176;-0.708;2022-09-03T11:16:19;100442.83;;;23.78;63.51
55517;BME280;41724;51.176;-0.708;2022-09-03T11:18:53;100447.82;;;23.65;64.79
55517;BME280;41724;51.176;-0.708;2022-09-03T11:21:25;100448.16;;;23.60;65.56
55517;BME280;41724;51.176;-0.708;2022-09-03T11:24:03;100449.07;;;23.35;67.80
55517;BME280;41724;51.176;-0.708;2022-09-03T11:26:33;100447.41;;;23.79;66.26
55517;BME280;41724;51.176;-0.708;2022-09-03T11:29:08;100447.52;;;24.12;65.34
55517;BME280;41724;51.176;-0.708;2022-09-03T11:31:51;100445.21;;;24.58;65.74
55517;BME280;41724;51.176;-0.708;2022-09-03T11:34:28;100442.97;;;24.87;64.53
55517;BME280;41724;51.176;-0.708;2022-09-03T11:37:29;100438.87;;;25.40;62.83
55517;BME280;41724;51.176;-0.708;2022-09-03T11:40:02;100441.68;;;25.14;62.09
55517;BME280;41724;51.176;-0.708;2022-09-03T11:42:33;100439.84;;;24.84;60.87
55517;BME280;41724;51.176;-0.708;2022-09-03T11:45:36;100439.11;;;24.91;61.27
55517;BME280;41724;51.176;-0.708;2022-09-03T11:48:30;100437.69;;;25.04;61.92
55517;BME280;41724;51.176;-0.708;2022-09-03T11:50:59;100439.02;;;24.39;61.27
55517;BME280;41724;51.176;-0.708;2022-09-03T11:53:33;100446.29;;;23.30;63.53
55517;BME280;41724;51.176;-0.708;2022-09-03T11:56:12;100438.22;;;24.31;64.61
55517;BME280;41724;51.176;-0.708;2022-09-03T11:58:43;100440.94;;;24.90;62.08
55517;BME280;41724;51.176;-0.708;2022-09-03T12:01:11;100437.95;;;24.49;60.79
55517;BME280;41724;51.176;-0.708;2022-09-03T12:03:45;100440.40;;;24.12;61.80
55517;BME280;41724;51.176;-0.708;2022-09-03T12:06:31;100440.07;;;23.61;63.66
55517;BME280;41724;51.176;-0.708;2022-09-03T12:09:18;100441.74;;;24.53;58.58
55517;BME280;41724;51.176;-0.708;2022-09-03T12:11:56;100440.76;;;24.32;63.17
55517;BME280;41724;51.176;-0.708;2022-09-03T12:14:34;100440.27;;;24.98;61.72
55517;BME280;41724;51.176;-0.708;2022-09-03T12:17:11;100438.66;;;25.25;61.66
55517;BME280;41724;51.176;-0.708;2022-09-03T12:19:49;100444.65;;;24.97;59.97
55517;BME280;41724;51.176;-0.708;2022-09-03T12:22:19;100438.01;;;25.40;60.71
55517;BME280;41724;51.176;-0.708;2022-09-03T12:24:46;100437.79;;;24.83;59.47
55517;BME280;41724;51.176;-0.708;2022-09-03T12:27:18;100439.72;;;24.61;57.96
55517;BME280;41724;51.176;-0.708;2022-09-03T12:29:55;100445.18;;;25.02;59.39
55517;BME280;41724;51.176;-0.708;2022-09-03T12:32:23;100446.30;;;24.75;60.68
55517;BME280;41724;51.176;-0.708;2022-09-03T12:34:50;100445.98;;;25.08;57.38
55517;BME280;41724;51.176;-0.708;2022-09-03T12:37:20;100448.70;;;25.35;54.35
55517;BME280;41724;51.176;-0.708;2022-09-03T12:39:50;100444.77;;;25.43;55.90
55517;BME280;41724;51.176;-0.708;2022-09-03T12:42:22;100443.16;;;26.21;56.29
55517;BME280;41724;51.176;-0.708;2022-09-03T12:44:50;100448.78;;;25.36;52.80
55517;BME280;41724;51.176;-0.708;2022-09-03T12:47:20;100458.67;;;25.35;51.88
55517;BME280;41724;51.176;-0.708;2022-09-03T12:49:48;100453.22;;;25.06;54.25
55517;BME280;41724;51.176;-0.708;2022-09-03T12:52:19;100447.99;;;25.61;52.05
55517;BME280;41724;51.176;-0.708;2022-09-03T12:54:53;100451.02;;;25.99;52.64
55517;BME280;41724;51.176;-0.708;2022-09-03T12:57:25;100449.92;;;27.29;51.77
55517;BME280;41724;51.176;-0.708;2022-09-03T12:59:57;100451.69;;;27.15;50.02
55517;BME280;41724;51.176;-0.708;2022-09-03T13:02:31;100454.94;;;26.81;49.68